Time;durP1;ratioP1;P1;durP2;ratioP2;P2;SDS_P1;SDS_P2;PMS_P1;PMS_P2;Temp;Humidity;BMP_temperature;BMP_pressure;BME280_temperature;BME280_humidity;BME280_pressure;Samples;Min_cycle;Max_cycle;Signal;HPM_P1;HPM_P2
2022/06/13 00:01:12;;;;;;;26.70;11.27;;;13.70;99.90;;;;;;5070491;28;20044;-72
2022/06/13 00:03:39;;;;;;;29.42;12.10;;;13.70;99.90;;;;;;5064026;28;20037;-71
2022/06/13 00:06:05;;;;;;;32.33;11.82;;;13.70;99.90;;;;;;5058753;28;20060;-71
2022/06/13 00:08:30;;;;;;;27.40;11.88;;;13.60;99.90;;;;;;5059479;28;20044;-72
2022/06/13 00:10:56;;;;;;;22.00;11.13;;;13.70;99.90;;;;;;5051465;28;20402;-72
2022/06/13 00:13:22;;;;;;;25.13;12.02;;;13.70;99.90;;;;;;5057281;28;20119;-72
2022/06/13 00:15:48;;;;;;;24.67;11.35;;;13.70;99.90;;;;;;5059407;28;20169;-72
2022/06/13 00:18:14;;;;;;;24.65;12.07;;;13.70;99.90;;;;;;5063441;28;20045;-72
2022/06/13 00:20:40;;;;;;;30.65;11.77;;;13.70;99.90;;;;;;5065547;28;20041;-72
2022/06/13 00:23:06;;;;;;;30.70;11.82;;;13.60;99.90;;;;;;5066858;28;20417;-72
2022/06/13 00:25:32;;;;;;;20.00;11.85;;;13.70;99.90;;;;;;5050246;28;20045;-72
2022/06/13 00:27:57;;;;;;;22.17;12.80;;;13.70;99.90;;;;;;5056835;28;20845;-71
2022/06/13 00:30:23;;;;;;;16.70;10.95;;;13.70;99.90;;;;;;5052217;28;20428;-72
2022/06/13 00:32:50;;;;;;;24.05;12.60;;;13.70;99.90;;;;;;5054676;28;20037;-71
2022/06/13 00:35:16;;;;;;;20.05;12.02;;;13.60;99.90;;;;;;5067122;28;20044;-72
2022/06/13 00:37:42;;;;;;;26.42;11.82;;;13.60;99.90;;;;;;5052126;28;20094;-72
2022/06/13 00:40:08;;;;;;;22.83;11.90;;;13.60;99.90;;;;;;5057739;28;20037;-71
2022/06/13 00:42:34;;;;;;;23.90;12.13;;;13.60;99.90;;;;;;5055437;28;20045;-71
2022/06/13 00:45:12;;;;;;;21.30;11.65;;;13.60;99.90;;;;;;5051849;28;20048;-72
2022/06/13 00:47:39;;;;;;;26.48;11.60;;;13.60;99.90;;;;;;5056599;28;20044;-72
2022/06/13 00:50:08;;;;;;;27.63;12.63;;;13.60;99.90;;;;;;5049987;28;20408;-72
2022/06/13 00:52:43;;;;;;;24.65;11.95;;;13.50;99.90;;;;;;5059397;28;20135;-71
2022/06/13 00:55:12;;;;;;;29.40;13.20;;;13.60;99.90;;;;;;5050694;28;20041;-72
2022/06/13 00:57:38;;;;;;;30.52;12.77;;;13.50;99.90;;;;;;5049890;28;20052;-71
2022/06/13 01:00:09;;;;;;;22.83;11.95;;;13.50;99.90;;;;;;5060788;28;20055;-72
2022/06/13 01:02:37;;;;;;;21.38;10.85;;;13.60;99.90;;;;;;5067964;28;20195;-71
2022/06/13 01:05:03;;;;;;;33.83;12.65;;;13.50;99.90;;;;;;5067276;28;20048;-71
2022/06/13 01:07:29;;;;;;;32.97;13.13;;;13.50;99.90;;;;;;5057603;28;20059;-71
2022/06/13 01:12:40;;;;;;;32.60;13.73;;;13.40;99.90;;;;;;5055278;28;20053;-71
2022/06/13 01:15:18;;;;;;;30.98;13.63;;;13.40;99.90;;;;;;5053087;28;20118;-71
2022/06/13 01:17:49;;;;;;;;;;;13.40;99.90;;;;;;5055061;28;20561;-71
2022/06/13 01:20:41;;;;;;;39.20;12.65;;;13.40;99.90;;;;;;5062264;28;19963;-72
2022/06/13 01:23:09;;;;;;;26.13;12.57;;;13.40;99.90;;;;;;5046698;28;20056;-71
2022/06/13 01:25:58;;;;;;;26.73;12.88;;;13.40;99.90;;;;;;5063097;28;20527;-71
2022/06/13 01:28:42;;;;;;;26.17;12.55;;;13.40;99.90;;;;;;5053233;28;20096;-71
2022/06/13 01:31:16;;;;;;;31.02;13.07;;;13.40;99.90;;;;;;5047114;28;20053;-71
2022/06/13 01:34:04;;;;;;;26.75;13.82;;;13.40;99.90;;;;;;5060312;28;20098;-72
2022/06/13 01:37:02;;;;;;;35.90;15.10;;;13.50;99.90;;;;;;5058611;28;20040;-72
2022/06/13 01:39:55;;;;;;;33.25;13.85;;;13.40;99.90;;;;;;5053374;28;20052;-71
2022/06/13 01:42:23;;;;;;;24.80;13.77;;;13.40;99.90;;;;;;5059518;28;20048;-72
2022/06/13 01:45:13;;;;;;;23.67;13.20;;;13.50;99.90;;;;;;5064409;28;20044;-72
2022/06/13 01:47:52;;;;;;;24.55;13.05;;;13.40;99.90;;;;;;5065022;28;20093;-71
2022/06/13 01:50:26;;;;;;;22.17;13.43;;;13.40;99.90;;;;;;5046615;28;20110;-72
2022/06/13 01:53:15;;;;;;;17.73;11.95;;;13.40;99.90;;;;;;5056441;28;20453;-71
2022/06/13 01:55:47;;;;;;;26.35;12.63;;;13.40;99.90;;;;;;5047900;28;20060;-71
2022/06/13 01:58:39;;;;;;;31.60;12.48;;;13.40;99.90;;;;;;5055263;28;20036;-71
2022/06/13 02:01:09;;;;;;;23.75;11.82;;;13.40;99.90;;;;;;5053510;28;20114;-72
2022/06/13 02:03:47;;;;;;;37.67;12.15;;;13.30;99.90;;;;;;5056546;28;20044;-71
2022/06/13 02:06:32;;;;;;;27.93;13.67;;;13.30;99.90;;;;;;5057146;28;20055;-72
2022/06/13 02:09:06;;;;;;;23.08;13.75;;;13.30;99.90;;;;;;5054162;28;20035;-72
2022/06/13 02:11:38;;;;;;;30.63;13.43;;;13.30;99.90;;;;;;5052800;28;20414;-72
2022/06/13 02:14:12;;;;;;;38.20;13.88;;;13.30;99.90;;;;;;5047960;28;20160;-72
2022/06/13 02:16:48;;;;;;;30.60;13.55;;;13.30;99.90;;;;;;5058394;28;20072;-71
2022/06/13 02:19:21;;;;;;;38.70;14.88;;;13.30;99.90;;;;;;5059255;28;20507;-72
2022/06/13 02:21:55;;;;;;;36.05;14.45;;;13.30;99.90;;;;;;5053675;28;20067;-72
2022/06/13 02:24:27;;;;;;;31.35;13.73;;;13.30;99.90;;;;;;5053548;28;20053;-71
2022/06/13 02:26:57;;;;;;;29.15;13.57;;;13.20;99.90;;;;;;5053019;28;20089;-71
2022/06/13 02:29:32;;;;;;;26.15;13.23;;;13.30;99.90;;;;;;5056364;28;20083;-72
2022/06/13 02:32:06;;;;;;;29.23;12.90;;;13.30;99.90;;;;;;5047700;28;20049;-71
2022/06/13 02:34:39;;;;;;;41.70;13.90;;;13.30;99.90;;;;;;5063643;28;20425;-72
2022/06/13 02:37:30;;;;;;;38.28;13.68;;;13.30;99.90;;;;;;5050864;28;20806;-71
2022/06/13 02:40:14;;;;;;;22.13;13.65;;;13.30;99.90;;;;;;5062425;28;20049;-71
2022/06/13 02:42:49;;;;;;;28.55;13.30;;;13.30;99.90;;;;;;5040234;28;20049;-72
2022/06/13 02:45:37;;;;;;;32.55;15.23;;;13.30;99.90;;;;;;5055463;28;20052;-71
2022/06/13 02:48:18;;;;;;;;;;;13.30;99.90;;;;;;5051746;28;20063;-71
2022/06/13 02:50:54;;;;;;;24.73;13.00;;;13.30;99.90;;;;;;5055229;28;20007;-72
2022/06/13 02:53:29;;;;;;;25.17;13.30;;;13.30;99.90;;;;;;5065061;28;20052;-72
2022/06/13 02:56:30;;;;;;;29.17;12.60;;;13.30;99.90;;;;;;5056083;28;20049;-72
2022/06/13 02:59:11;;;;;;;23.63;12.50;;;13.30;99.90;;;;;;5029170;28;20075;-72
2022/06/13 03:01:42;;;;;;;23.48;11.88;;;13.30;99.90;;;;;;5056033;28;20047;-71
2022/06/13 03:04:33;;;;;;;29.80;15.38;;;13.20;99.90;;;;;;5047568;28;20049;-71
2022/06/13 03:07:33;;;;;;;36.17;16.20;;;13.20;99.90;;;;;;5048398;28;20079;-72
2022/06/13 03:10:12;;;;;;;28.60;15.38;;;13.20;99.90;;;;;;5038284;28;20149;-71
2022/06/13 03:13:08;;;;;;;34.55;16.33;;;13.20;99.90;;;;;;5047043;28;20101;-72
2022/06/13 03:15:54;;;;;;;37.38;14.18;;;13.20;99.90;;;;;;5047932;28;20118;-72
2022/06/13 03:18:26;;;;;;;35.50;15.48;;;13.20;99.90;;;;;;5061177;28;20132;-72
2022/06/13 03:21:03;;;;;;;34.72;15.13;;;13.20;99.90;;;;;;5061926;28;20094;-72
2022/06/13 03:23:36;;;;;;;23.40;15.02;;;13.20;99.90;;;;;;5054480;28;20533;-71
2022/06/13 03:26:16;;;;;;;33.50;15.93;;;13.30;99.90;;;;;;5062432;28;20784;-72
2022/06/13 03:28:47;;;;;;;28.50;14.25;;;13.20;99.90;;;;;;5055632;28;20039;-72
2022/06/13 03:31:29;;;;;;;41.15;16.52;;;13.30;99.90;;;;;;5061923;28;20047;-71
2022/06/13 03:34:01;;;;;;;36.85;15.60;;;13.30;99.90;;;;;;5067776;28;20044;-72
2022/06/13 03:36:37;;;;;;;27.17;16.08;;;13.30;99.90;;;;;;5058704;28;20466;-72
2022/06/13 03:39:12;;;;;;;35.05;16.02;;;13.30;99.90;;;;;;5056237;28;20060;-72
2022/06/13 03:41:49;;;;;;;40.53;15.38;;;13.30;99.90;;;;;;5054109;28;20962;-71
2022/06/13 03:44:21;;;;;;;34.03;17.92;;;13.30;99.90;;;;;;5060482;28;20841;-72
2022/06/13 03:46:58;;;;;;;32.20;16.77;;;13.30;99.90;;;;;;5057123;28;20501;-71
2022/06/13 03:49:37;;;;;;;42.22;19.15;;;13.30;99.90;;;;;;5062214;28;20095;-71
2022/06/13 03:52:07;;;;;;;37.63;18.55;;;13.30;99.90;;;;;;5052766;28;20049;-71
2022/06/13 03:54:39;;;;;;;39.17;17.83;;;13.30;99.90;;;;;;5059519;28;20469;-71
2022/06/13 03:57:18;;;;;;;31.92;16.48;;;13.30;99.90;;;;;;5050550;28;20102;-71
2022/06/13 04:00:05;;;;;;;38.53;18.27;;;13.30;99.90;;;;;;5052937;28;20049;-72
2022/06/13 04:02:35;;;;;;;29.90;16.00;;;13.30;99.90;;;;;;5051455;28;20952;-72
2022/06/13 04:05:01;;;;;;;43.08;18.73;;;13.30;99.90;;;;;;5049725;28;20049;-72
2022/06/13 04:07:32;;;;;;;35.35;17.55;;;13.30;99.90;;;;;;5052125;28;20061;-72
2022/06/13 04:10:05;;;;;;;34.83;17.77;;;13.40;99.90;;;;;;5050243;28;20072;-72
2022/06/13 04:12:34;;;;;;;51.13;18.33;;;13.40;99.90;;;;;;5052882;28;20067;-72
2022/06/13 04:15:33;;;;;;;35.60;17.90;;;13.40;99.90;;;;;;5052456;28;20075;-73
2022/06/13 04:18:42;;;;;;;44.10;17.83;;;13.40;99.90;;;;;;5048304;28;20440;-71
2022/06/13 04:21:40;;;;;;;32.60;16.40;;;13.40;99.90;;;;;;5062076;28;20106;-71
2022/06/13 04:24:35;;;;;;;45.40;17.27;;;13.50;99.90;;;;;;5053934;28;20056;-72
2022/06/13 04:27:22;;;;;;;35.10;16.80;;;13.50;99.90;;;;;;5060405;28;20052;-73
2022/06/13 04:30:10;;;;;;;42.60;17.43;;;13.50;99.90;;;;;;5051814;28;20120;-71
2022/06/13 04:32:53;;;;;;;36.20;17.17;;;13.50;99.90;;;;;;5050736;28;20053;-71
2022/06/13 04:35:20;;;;;;;39.25;17.02;;;13.60;99.90;;;;;;5052441;28;20076;-71
2022/06/13 04:37:47;;;;;;;37.45;18.23;;;13.60;99.90;;;;;;5061340;28;20080;-71
2022/06/13 04:40:19;;;;;;;29.38;14.77;;;13.60;99.90;;;;;;5056284;28;20076;-71
2022/06/13 04:42:46;;;;;;;45.88;17.10;;;13.60;99.90;;;;;;5055232;28;20052;-71
2022/06/13 04:45:20;;;;;;;29.98;15.55;;;13.70;99.90;;;;;;5053318;28;20047;-71
2022/06/13 04:47:47;;;;;;;30.10;15.18;;;13.70;99.90;;;;;;5056846;28;20040;-71
2022/06/13 04:50:17;;;;;;;32.43;15.70;;;13.70;99.90;;;;;;5058262;28;20397;-73
2022/06/13 04:52:46;;;;;;;37.40;14.43;;;13.70;99.90;;;;;;5059842;28;20060;-72
2022/06/13 04:55:21;;;;;;;28.58;12.73;;;13.80;99.90;;;;;;5062462;28;20470;-72
2022/06/13 04:57:46;;;;;;;22.90;11.50;;;13.90;99.90;;;;;;5049304;28;20926;-72
2022/06/13 05:00:14;;;;;;;33.67;12.30;;;13.90;99.90;;;;;;5052899;28;20052;-73
2022/06/13 05:02:51;;;;;;;28.48;12.05;;;14.00;99.90;;;;;;5050697;28;20459;-72
2022/06/13 05:05:25;;;;;;;32.88;12.27;;;14.10;99.90;;;;;;5053254;28;20120;-73
2022/06/13 05:07:51;;;;;;;17.65;9.90;;;14.20;99.90;;;;;;5052733;28;20049;-71
2022/06/13 05:10:21;;;;;;;22.98;10.75;;;14.20;99.90;;;;;;5051163;28;20099;-71
2022/06/13 05:12:47;;;;;;;19.08;10.32;;;14.20;99.90;;;;;;5053588;28;20044;-71
2022/06/13 05:15:26;;;;;;;18.23;8.45;;;14.30;99.90;;;;;;5062902;28;20064;-73
2022/06/13 05:18:16;;;;;;;19.17;8.98;;;14.40;99.90;;;;;;5058880;28;20113;-73
2022/06/13 05:20:54;;;;;;;26.38;9.85;;;14.40;99.90;;;;;;5061047;28;20052;-73
2022/06/13 05:23:40;;;;;;;21.45;8.35;;;14.40;99.90;;;;;;5055542;28;20045;-73
2022/06/13 05:26:07;;;;;;;18.38;7.88;;;14.50;99.90;;;;;;5059089;28;20075;-72
2022/06/13 05:28:35;;;;;;;16.70;7.55;;;14.50;99.90;;;;;;5062008;28;20067;-72
2022/06/13 05:31:18;;;;;;;19.52;8.32;;;14.50;99.90;;;;;;5054325;28;20060;-72
2022/06/13 05:33:45;;;;;;;16.92;7.68;;;14.50;99.90;;;;;;5059733;28;20048;-71
2022/06/13 05:36:18;;;;;;;11.93;7.75;;;14.60;99.90;;;;;;5052678;28;20453;-72
2022/06/13 05:38:48;;;;;;;14.73;7.43;;;14.60;99.90;;;;;;5067668;28;20076;-72
2022/06/13 05:41:14;;;;;;;20.55;7.28;;;14.70;99.90;;;;;;5056385;28;20063;-71
2022/06/13 05:43:39;;;;;;;21.90;8.48;;;14.70;99.90;;;;;;5053987;28;20033;-72
2022/06/13 05:46:07;;;;;;;21.15;7.00;;;14.80;99.90;;;;;;5051584;28;20083;-72
2022/06/13 05:48:33;;;;;;;11.93;6.35;;;14.90;99.90;;;;;;5049337;28;20115;-72
2022/06/13 05:50:59;;;;;;;16.13;6.10;;;15.00;99.90;;;;;;5048342;28;20040;-70
2022/06/13 05:53:26;;;;;;;18.27;6.65;;;15.00;99.90;;;;;;5049320;28;20492;-71
2022/06/13 05:55:56;;;;;;;29.05;7.63;;;15.10;99.90;;;;;;5049059;28;20127;-71
2022/06/13 05:58:24;;;;;;;16.00;6.68;;;15.00;99.90;;;;;;5048959;28;20135;-71
2022/06/13 06:00:53;;;;;;;;;;;15.00;99.90;;;;;;5056723;28;20465;-72
2022/06/13 06:03:19;;;;;;;9.77;5.30;;;14.90;99.90;;;;;;5053134;28;19931;-72
2022/06/13 06:05:53;;;;;;;9.43;5.50;;;14.90;99.90;;;;;;5085736;27;20789;-71
2022/06/13 06:08:25;;;;;;;10.27;5.13;;;15.00;99.90;;;;;;5078372;28;20139;-67
2022/06/13 06:10:53;;;;;;;11.95;5.10;;;15.20;99.90;;;;;;5080345;28;20044;-67
2022/06/13 06:13:19;;;;;;;9.75;4.60;;;15.40;99.90;;;;;;5079731;28;20040;-69
2022/06/13 06:15:46;;;;;;;8.10;4.13;;;15.50;99.90;;;;;;5087879;28;20040;-71
2022/06/13 06:18:13;;;;;;;9.35;4.75;;;15.60;99.90;;;;;;5088483;28;20535;-70
2022/06/13 06:20:39;;;;;;;12.63;4.80;;;15.60;99.90;;;;;;5086620;28;20517;-74
2022/06/13 06:23:06;;;;;;;12.32;5.03;;;15.60;99.90;;;;;;5088548;28;20075;-74
2022/06/13 06:25:33;;;;;;;8.85;4.35;;;15.70;99.90;;;;;;5080713;28;20501;-74
2022/06/13 06:27:59;;;;;;;17.45;5.53;;;15.80;99.90;;;;;;5084461;28;20036;-71
2022/06/13 06:30:28;;;;;;;8.10;4.30;;;15.90;99.90;;;;;;5083925;28;20032;-71
2022/06/13 06:32:55;;;;;;;7.22;3.85;;;16.00;99.90;;;;;;5084265;28;20052;-70
2022/06/13 06:35:22;;;;;;;20.75;6.15;;;16.20;99.90;;;;;;5081158;28;20409;-69
2022/06/13 06:37:52;;;;;;;8.57;4.15;;;16.40;99.90;;;;;;5069806;28;20049;-69
2022/06/13 06:40:19;;;;;;;11.98;3.90;;;16.60;99.90;;;;;;5084208;28;20052;-70
2022/06/13 06:42:45;;;;;;;16.58;4.90;;;16.80;99.90;;;;;;5084035;28;20039;-70
2022/06/13 06:45:11;;;;;;;6.65;2.85;;;17.10;99.90;;;;;;5071360;28;20063;-68
2022/06/13 06:47:39;;;;;;;12.60;4.13;;;17.40;99.90;;;;;;5073642;28;20053;-68
2022/06/13 06:50:13;;;;;;;8.52;4.03;;;17.50;99.90;;;;;;5068149;28;20056;-69
2022/06/13 06:52:39;;;;;;;7.90;2.97;;;17.80;99.90;;;;;;5082983;28;20056;-70
2022/06/13 07:00:37;;;;;;;4.85;2.60;;;17.40;99.90;;;;;;5069793;28;20505;-69
2022/06/13 07:03:03;;;;;;;4.90;3.13;;;17.20;99.90;;;;;;5082065;28;20076;-71
2022/06/13 07:05:29;;;;;;;13.20;3.25;;;17.10;99.90;;;;;;5082284;28;20111;-71
2022/06/13 07:07:54;;;;;;;6.30;3.80;;;17.00;99.90;;;;;;5076660;28;20045;-71
2022/06/13 07:10:20;;;;;;;5.82;2.90;;;17.00;99.90;;;;;;5081390;28;20066;-69
2022/06/13 07:12:46;;;;;;;6.53;3.70;;;16.90;99.90;;;;;;5078464;28;20052;-71
2022/06/13 07:15:14;;;;;;;6.70;3.58;;;16.80;99.90;;;;;;5077089;28;20048;-72
2022/06/13 07:17:40;;;;;;;4.78;2.60;;;16.60;99.90;;;;;;5069680;28;20040;-75
2022/06/13 07:20:07;;;;;;;9.75;3.22;;;16.50;99.90;;;;;;5044692;28;20941;-74
2022/06/13 07:22:34;;;;;;;11.63;3.17;;;16.30;99.90;;;;;;5075136;28;20143;-73
2022/06/13 07:24:59;;;;;;;10.18;3.13;;;16.20;99.90;;;;;;5076056;28;20052;-74
2022/06/13 07:27:25;;;;;;;4.63;2.40;;;16.10;99.90;;;;;;5068937;28;20044;-73
2022/06/13 07:29:51;;;;;;;6.85;2.70;;;16.00;99.90;;;;;;5068846;28;20079;-74
2022/06/13 07:32:21;;;;;;;5.65;2.90;;;16.20;99.90;;;;;;5061258;28;20040;-73
2022/06/13 07:34:49;;;;;;;5.93;2.58;;;16.50;99.90;;;;;;5066935;28;20044;-73
2022/06/13 07:38:16;;;;;;;5.30;2.65;;;16.80;99.90;;;;;;5073308;28;20044;-77
2022/06/13 07:40:25;;;;;;;4.05;1.85;;;17.00;99.90;;;;;;5059135;28;20079;-77
2022/06/13 07:42:56;;;;;;;3.47;2.28;;;17.40;99.90;;;;;;5061997;28;20052;-78
2022/06/13 07:45:26;;;;;;;6.68;2.60;;;17.60;99.90;;;;;;5063441;28;20155;-78
2022/06/13 07:47:53;;;;;;;7.10;2.58;;;17.90;99.90;;;;;;5068443;28;20052;-77
2022/06/13 07:50:21;;;;;;;4.65;2.75;;;17.90;99.90;;;;;;5067040;28;20446;-79
2022/06/13 07:52:48;;;;;;;;;;;18.30;99.90;;;;;;5075441;28;20048;-78
2022/06/13 07:55:14;;;;;;;2.95;1.83;;;18.40;99.90;;;;;;5066347;28;19935;-77
2022/06/13 07:57:40;;;;;;;5.32;2.50;;;18.70;99.90;;;;;;5068637;28;20119;-78
2022/06/13 08:00:08;;;;;;;6.03;2.60;;;18.80;99.90;;;;;;5067766;28;20040;-78
2022/06/13 08:02:36;;;;;;;7.78;2.45;;;19.10;99.90;;;;;;5067611;28;20052;-76
2022/06/13 08:05:02;;;;;;;9.05;2.72;;;19.00;99.90;;;;;;5066686;28;20133;-77
2022/06/13 08:07:28;;;;;;;8.10;2.92;;;19.20;99.90;;;;;;5066911;28;20045;-77
2022/06/13 08:09:54;;;;;;;7.82;2.85;;;19.40;99.90;;;;;;5067422;28;20036;-78
2022/06/13 08:12:21;;;;;;;4.97;2.47;;;19.80;99.90;;;;;;5067753;28;20409;-78
2022/06/13 08:14:47;;;;;;;19.10;3.60;;;19.80;99.90;;;;;;5066915;28;20192;-78
2022/06/13 08:17:15;;;;;;;12.35;3.50;;;20.00;99.90;;;;;;5059576;28;20056;-80
2022/06/13 08:19:40;;;;;;;5.38;2.88;;;19.90;99.90;;;;;;5065598;28;20075;-79
2022/06/13 08:22:06;;;;;;;7.38;3.15;;;20.00;99.90;;;;;;5062317;28;20068;-80
2022/06/13 08:24:32;;;;;;;10.93;2.90;;;20.00;99.90;;;;;;5058914;28;20048;-81
2022/06/13 08:26:57;;;;;;;5.35;2.92;;;20.10;99.90;;;;;;5049614;28;20513;-81
2022/06/13 08:29:23;;;;;;;16.52;2.58;;;19.90;99.90;;;;;;5067328;28;20528;-79
2022/06/13 08:31:49;;;;;;;7.80;2.90;;;19.50;99.90;;;;;;5070568;28;20048;-79
2022/06/13 08:34:15;;;;;;;8.65;4.13;;;19.40;99.90;;;;;;5059379;28;20047;-80
2022/06/13 08:36:40;;;;;;;7.22;3.35;;;19.20;99.90;;;;;;5064839;28;20056;-79
2022/06/13 08:39:06;;;;;;;6.50;3.28;;;18.80;99.90;;;;;;5070371;28;20048;-74
2022/06/13 08:41:44;;;;;;;6.43;3.30;;;18.60;99.90;;;;;;5057947;28;20279;-68
2022/06/13 08:44:21;;;;;;;5.38;3.30;;;18.60;99.90;;;;;;5072978;28;20078;-67
2022/06/13 08:46:47;;;;;;;9.75;3.70;;;18.50;99.90;;;;;;5066636;28;20044;-67
2022/06/13 08:49:46;;;;;;;12.38;4.70;;;18.70;99.90;;;;;;5068213;28;20045;-68
2022/06/13 08:52:25;;;;;;;7.43;3.30;;;19.00;99.90;;;;;;5062717;28;20043;-68
2022/06/13 08:55:10;;;;;;;12.57;3.10;;;19.00;99.90;;;;;;5048861;28;20049;-67
2022/06/13 08:57:41;;;;;;;7.82;2.92;;;18.90;99.90;;;;;;5059600;28;20062;-67
2022/06/13 09:00:17;;;;;;;7.80;3.67;;;18.60;99.90;;;;;;5068196;28;20060;-67
2022/06/13 09:02:48;;;;;;;11.65;3.90;;;18.40;99.90;;;;;;5067958;28;20044;-66
2022/06/13 09:05:24;;;;;;;8.20;2.83;;;18.50;99.90;;;;;;5054833;28;20095;-67
2022/06/13 09:08:13;;;;;;;19.77;4.47;;;18.30;99.90;;;;;;5054171;28;20505;-67
2022/06/13 09:10:41;;;;;;;8.52;3.40;;;18.50;99.90;;;;;;5069313;28;20086;-66
2022/06/13 09:13:28;;;;;;;4.60;3.05;;;18.50;99.90;;;;;;5066671;28;20541;-67
2022/06/13 09:16:06;;;;;;;6.38;3.00;;;18.40;99.90;;;;;;5065323;28;20094;-67
2022/06/13 09:18:49;;;;;;;5.38;3.40;;;18.40;99.90;;;;;;5051964;28;20490;-66
2022/06/13 09:21:18;;;;;;;15.35;3.78;;;18.20;99.90;;;;;;5065685;28;20086;-67
2022/06/13 09:23:54;;;;;;;8.98;3.03;;;18.20;99.90;;;;;;5061874;28;20044;-68
2022/06/13 09:26:33;;;;;;;8.90;3.22;;;18.20;99.90;;;;;;5067482;28;20119;-68
2022/06/13 09:29:04;;;;;;;5.55;3.45;;;18.10;99.90;;;;;;5064457;28;20090;-67
2022/06/13 09:31:33;;;;;;;11.60;3.22;;;18.20;99.90;;;;;;5059687;28;20036;-68
2022/06/13 09:34:25;;;;;;;7.78;3.15;;;18.60;99.90;;;;;;5062589;28;20131;-73
2022/06/13 09:37:30;;;;;;;6.57;3.63;;;19.00;99.90;;;;;;5054468;28;20138;-73
2022/06/13 09:39:55;;;;;;;6.72;3.15;;;19.60;99.90;;;;;;5064922;28;20875;-72
2022/06/13 09:42:29;;;;;;;5.25;2.75;;;19.70;99.90;;;;;;5068296;28;20044;-75
2022/06/13 09:45:08;;;;;;;3.45;2.40;;;19.80;96.50;;;;;;5068262;28;20052;-72
2022/06/13 09:48:12;;;;;;;6.97;3.13;;;19.60;90.80;;;;;;5066382;28;20676;-74
2022/06/13 09:51:01;;;;;;;16.67;3.65;;;19.70;94.70;;;;;;5067662;28;20040;-73
2022/06/13 09:53:42;;;;;;;7.15;2.78;;;20.00;89.70;;;;;;5060356;28;20402;-74
2022/06/13 09:56:17;;;;;;;7.25;3.40;;;20.20;88.30;;;;;;5056065;28;20044;-74
2022/06/13 09:59:10;;;;;;;7.20;2.50;;;20.10;85.80;;;;;;5062944;28;20048;-73
2022/06/13 10:01:59;;;;;;;6.22;2.70;;;19.90;83.70;;;;;;5061961;28;20110;-73
2022/06/13 10:04:45;;;;;;;5.93;2.17;;;19.90;82.90;;;;;;5062603;28;20076;-74
2022/06/13 10:07:25;;;;;;;5.93;2.47;;;19.70;93.60;;;;;;5067684;28;20131;-73
2022/06/13 10:09:54;;;;;;;3.25;2.10;;;19.60;95.40;;;;;;5066815;28;20053;-74
2022/06/13 10:12:34;;;;;;;6.90;2.65;;;19.70;98.00;;;;;;5059823;28;20040;-72
2022/06/13 10:15:11;;;;;;;6.93;2.15;;;19.70;93.50;;;;;;5070878;28;20581;-72
2022/06/13 10:18:10;;;;;;;8.70;2.35;;;19.70;91.80;;;;;;5062557;28;20412;-71
2022/06/13 10:20:51;;;;;;;9.48;3.03;;;19.90;87.20;;;;;;5064233;28;20067;-72
2022/06/13 10:23:23;;;;;;;4.47;2.63;;;20.00;82.20;;;;;;5060291;28;20047;-72
2022/06/13 10:26:01;;;;;;;11.88;3.65;;;20.30;91.00;;;;;;5066467;28;20409;-73
2022/06/13 10:28:54;;;;;;;11.45;2.92;;;20.60;88.10;;;;;;5061999;28;20127;-73
2022/06/13 10:31:51;;;;;;;18.38;3.22;;;20.80;80.40;;;;;;5065494;28;20052;-72
2022/06/13 10:34:33;;;;;;;14.07;3.75;;;20.30;91.50;;;;;;5070474;28;20084;-73
2022/06/13 10:37:04;;;;;;;6.18;3.45;;;19.80;99.90;;;;;;5067447;28;20053;-73
2022/06/13 10:39:31;;;;;;;10.93;3.47;;;19.60;99.90;;;;;;5060706;28;20040;-73
2022/06/13 10:42:07;;;;;;;11.40;3.70;;;19.50;99.90;;;;;;5062281;28;20044;-73
2022/06/13 10:44:33;;;;;;;7.20;2.50;;;19.30;99.90;;;;;;5042827;28;20072;-72
2022/06/13 10:47:08;;;;;;;4.72;2.40;;;19.10;99.90;;;;;;5064354;28;20049;-73
2022/06/13 10:49:45;;;;;;;7.15;3.38;;;19.10;99.90;;;;;;5052590;28;20164;-72
2022/06/13 10:52:16;;;;;;;11.15;3.15;;;19.10;99.90;;;;;;5068161;28;20062;-74
2022/06/13 10:54:56;;;;;;;12.15;3.88;;;19.20;99.90;;;;;;5071028;28;20092;-74
2022/06/13 10:57:28;;;;;;;12.30;3.38;;;19.50;99.90;;;;;;5065296;28;20560;-74
2022/06/13 11:00:19;;;;;;;13.85;3.65;;;19.70;99.90;;;;;;5067859;28;20052;-74
2022/06/13 11:02:45;;;;;;;23.25;4.82;;;19.70;99.90;;;;;;5054979;28;20916;-73
2022/06/13 11:05:24;;;;;;;7.93;3.28;;;19.60;99.90;;;;;;5055623;28;20056;-72
2022/06/13 11:07:52;;;;;;;10.10;3.03;;;19.40;99.90;;;;;;5055981;28;20391;-73
2022/06/13 11:10:36;;;;;;;12.13;4.43;;;19.40;99.90;;;;;;5070448;28;20055;-73
2022/06/13 11:13:05;;;;;;;10.27;3.50;;;19.50;99.90;;;;;;5062730;28;20827;-74
2022/06/13 11:24:14;;;;;;;11.48;2.88;;;19.10;99.20;;;;;;5061613;28;20048;-73
2022/06/13 11:29:29;;;;;;;10.85;3.13;;;19.10;96.70;;;;;;5052298;28;20827;-73
2022/06/13 11:31:57;;;;;;;9.00;4.03;;;19.10;97.20;;;;;;5066441;28;20067;-73
2022/06/13 11:34:29;;;;;;;7.07;3.63;;;19.40;99.90;;;;;;5067219;28;20131;-73
2022/06/13 11:37:23;;;;;;;10.05;4.03;;;19.60;98.60;;;;;;5058568;28;20528;-73
2022/06/13 11:39:51;;;;;;;8.23;3.13;;;19.60;96.10;;;;;;5059501;28;20741;-72
2022/06/13 11:42:27;;;;;;;10.68;3.80;;;19.80;99.60;;;;;;5073356;28;20044;-72
2022/06/13 11:44:58;;;;;;;9.07;3.60;;;19.60;98.90;;;;;;5063632;28;20052;-72
2022/06/13 11:47:24;;;;;;;9.80;3.70;;;19.40;98.00;;;;;;5070357;28;20493;-72
2022/06/13 11:49:56;;;;;;;12.98;3.67;;;19.40;99.70;;;;;;5063787;28;20045;-72
2022/06/13 11:55:25;;;;;;;15.77;4.05;;;19.70;95.00;;;;;;5067924;28;20067;-66
2022/06/13 11:58:02;;;;;;;15.20;4.13;;;20.10;94.20;;;;;;5068558;28;20101;-66
2022/06/13 12:00:37;;;;;;;12.25;3.10;;;20.40;82.50;;;;;;5053186;28;20156;-65
2022/06/13 12:03:14;;;;;;;8.95;2.75;;;20.60;78.40;;;;;;5069306;28;20056;-65
2022/06/13 12:05:40;;;;;;;11.73;3.78;;;20.50;75.90;;;;;;5059961;28;20053;-65
2022/06/13 12:08:14;;;;;;;11.10;4.03;;;20.30;83.20;;;;;;5068799;28;20051;-65
2022/06/13 12:10:51;;;;;;;13.23;3.50;;;20.20;82.30;;;;;;5068895;28;20060;-65
2022/06/13 12:13:18;;;;;;;26.55;3.67;;;20.20;87.20;;;;;;5062183;28;20086;-66
2022/06/13 12:16:08;;;;;;;14.90;4.40;;;20.00;87.50;;;;;;5068579;28;20229;-66
2022/06/13 12:18:54;;;;;;;13.60;4.63;;;20.10;88.70;;;;;;5049485;28;20383;-65
2022/06/13 12:21:45;;;;;;;13.35;3.72;;;20.00;86.70;;;;;;5067770;28;20051;-66
2022/06/13 12:24:34;;;;;;;10.23;3.47;;;20.10;93.00;;;;;;5054472;28;20510;-65
2022/06/13 12:27:07;;;;;;;15.43;4.30;;;20.10;85.90;;;;;;5057990;28;20502;-66
2022/06/13 12:29:50;;;;;;;14.45;4.57;;;20.20;91.20;;;;;;5054489;28;20043;-65
2022/06/13 12:32:22;;;;;;;16.85;4.63;;;20.50;94.00;;;;;;5057071;28;20106;-66
2022/06/13 12:35:24;;;;;;;11.50;4.00;;;20.70;91.00;;;;;;5063824;28;20044;-66
2022/06/13 12:38:21;;;;;;;22.90;4.32;;;20.70;87.20;;;;;;5064667;28;20040;-66
2022/06/13 12:41:11;;;;;;;25.08;4.13;;;20.60;85.80;;;;;;5068566;28;20111;-66
2022/06/13 12:44:18;;;;;;;20.67;4.25;;;20.70;87.40;;;;;;5069162;28;20501;-66
2022/06/13 12:46:59;;;;;;;17.50;4.18;;;20.70;91.40;;;;;;5053375;28;20037;-66
2022/06/13 12:50:01;;;;;;;12.88;4.32;;;20.80;92.10;;;;;;5062071;28;20052;-66
2022/06/13 12:52:27;;;;;;;12.60;3.88;;;20.70;89.50;;;;;;5067417;28;20072;-65
2022/06/13 12:54:59;;;;;;;10.77;4.45;;;21.00;91.10;;;;;;5066857;28;20072;-64
2022/06/13 12:57:53;;;;;;;12.82;4.47;;;21.10;90.70;;;;;;5070859;28;20044;-64
2022/06/13 13:00:20;;;;;;;8.77;3.35;;;21.30;79.80;;;;;;5072919;28;20040;-65
2022/06/13 13:03:17;;;;;;;11.57;4.47;;;21.20;84.20;;;;;;5061705;28;20036;-65
2022/06/13 13:05:49;;;;;;;12.25;3.33;;;21.00;76.80;;;;;;5067646;28;20052;-64
2022/06/13 13:09:02;;;;;;;11.68;3.88;;;20.70;78.50;;;;;;5067822;28;20052;-65
2022/06/13 13:11:58;;;;;;;9.27;3.45;;;20.60;76.00;;;;;;5066053;28;20029;-64
2022/06/13 13:14:48;;;;;;;10.15;3.17;;;20.50;72.70;;;;;;5069743;28;20048;-65
2022/06/13 13:17:43;;;;;;;10.65;3.80;;;20.50;76.20;;;;;;5058218;28;20047;-65
2022/06/13 13:20:47;;;;;;;8.93;3.42;;;20.70;74.40;;;;;;5064769;28;20098;-64
2022/06/13 13:23:33;;;;;;;9.75;3.15;;;20.60;71.50;;;;;;5056542;28;20930;-64
2022/06/13 13:26:19;;;;;;;10.35;3.05;;;20.50;73.20;;;;;;5075676;28;20044;-64
2022/06/13 13:29:00;;;;;;;11.27;3.78;;;20.60;75.80;;;;;;5068033;28;20443;-65
2022/06/13 13:31:40;;;;;;;13.40;3.67;;;20.50;75.10;;;;;;5058622;28;20068;-66
2022/06/13 13:34:16;;;;;;;7.05;3.00;;;20.50;77.40;;;;;;5061840;28;20053;-65
2022/06/13 13:37:25;;;;;;;9.93;3.60;;;20.50;77.80;;;;;;5063878;28;20044;-65
2022/06/13 13:40:13;;;;;;;11.77;3.33;;;20.60;78.00;;;;;;5079665;28;20050;-65
2022/06/13 13:42:59;;;;;;;7.65;3.88;;;20.40;84.50;;;;;;5068195;28;20401;-65